Ootaki — JG5445 — position and weather

sailwx.info

Track history (hours):
 
Tides and Currents Weather Stations Pressure Air Temp Water Temp Dewpoint Dewpoint Depression Visibility Wind Speed Wind Dir Waves Ship Positions

Ootaki

Last reported at 2018-Jun-22 05:08 UTC. Time now 2018-Jun-22 05:35 UTC.
Position N 35°31' E 139°44'.

Length 37 m; draft 4.5 m.

Type: Tug. MMSI: 431100219.

Date/timePositionNaut miles runAvg speedWind from/ knotsBaromVisibWave heightAir tempDewpointWater temp
2018-Jun-22 05:08N 35°31' E 139°44'0 0.0
2018-Jun-22 02:23N 35°31' E 139°44'0 0.0
2018-Jun-22 01:55N 35°31' E 139°44'1 0.8
2018-Jun-22 00:35N 35°30' E 139°46'210.2
2018-Jun-22 00:23N 35°29' E 139°48'612.4
2018-Jun-21 23:53N 35°23' E 139°46'6 0.3
2018-Jun-20 23:39N 35°18' E 139°43'1 0.4
2018-Jun-20 22:18N 35°18' E 139°42'1 0.1
2018-Jun-20 05:32N 35°17' E 139°43'1 1.9
2018-Jun-20 05:03N 35°17' E 139°41'1 0.0
2018-Jun-19 02:02N 35°18' E 139°42'0 1.3
2018-Jun-19 01:59N 35°18' E 139°42'1 0.8
2018-Jun-19 00:41N 35°18' E 139°43'0 0.8
2018-Jun-19 00:26N 35°18' E 139°43'0 0.3
2018-Jun-18 22:52N 35°18' E 139°42'0 0.0
2018-Jun-18 01:40N 35°18' E 139°42'0 0.8
2018-Jun-18 01:22N 35°18' E 139°42'0 0.1
2018-Jun-17 21:34N 35°18' E 139°42'1 0.0
2018-Jun-17 03:03N 35°18' E 139°43'0 0.8
2018-Jun-17 02:54N 35°18' E 139°43'0 0.4
2018-Jun-17 02:13N 35°18' E 139°43'0 0.8
2018-Jun-17 01:40N 35°18' E 139°43'0 0.0
2018-Jun-17 01:14N 35°18' E 139°43'0 0.5
2018-Jun-17 00:48N 35°18' E 139°42'1 2.3
2018-Jun-17 00:27N 35°18' E 139°42'1 0.4
2018-Jun-16 22:02N 35°18' E 139°43'0 1.6
2018-Jun-16 22:00N 35°18' E 139°43'1 0.1
2018-Jun-16 02:35N 35°18' E 139°42'0 0.8
2018-Jun-16 02:26N 35°19' E 139°42'0 0.6
2018-Jun-16 01:46N 35°18' E 139°42'1 3.3
2018-Jun-16 01:29N 35°18' E 139°43'0 0.5
2018-Jun-16 00:54N 35°18' E 139°43'0 0.6
2018-Jun-16 00:25N 35°18' E 139°43'0 0.2
2018-Jun-15 23:55N 35°18' E 139°43'1 1.8
2018-Jun-15 23:18N 35°19' E 139°42'3 9.5
2018-Jun-15 22:59N 35°22' E 139°41'712.8
2018-Jun-15 22:28N 35°28' E 139°42'4 0.2
2018-Jun-15 05:27N 35°31' E 139°45'7 7.4
2018-Jun-15 04:27N 35°24' E 139°46'5 1.7
2018-Jun-15 01:11N 35°20' E 139°41'311.9
2018-Jun-15 00:57N 35°23' E 139°41'511.5
2018-Jun-15 00:30N 35°28' E 139°42'3 0.2
2018-Jun-14 07:52N 35°30' E 139°45'3 9.5
2018-Jun-14 07:30N 35°28' E 139°43'713.7
2018-Jun-14 07:00N 35°21' E 139°41'3 1.3
2018-Jun-14 04:28N 35°18' E 139°43'0 0.3
2018-Jun-14 03:58N 35°18' E 139°43'2 0.3
2018-Jun-13 22:01N 35°19' E 139°41'114.3
2018-Jun-13 21:57N 35°20' E 139°41'714.0
2018-Jun-13 21:27N 35°27' E 139°42'4 0.3
2018-Jun-13 04:05N 35°31' E 139°44'3 7.2
2018-Jun-13 03:38N 35°28' E 139°42'211.4
2018-Jun-13 03:27N 35°26' E 139°42'  
Track history (hours):
 
Tides and Currents Weather Stations Pressure Air Temp Water Temp Dewpoint Dewpoint Depression Visibility Wind Speed Wind Dir Waves Ship Positions

Ootaki

Last reported at 2018-Jun-22 05:08 UTC. Time now 2018-Jun-22 05:35 UTC.
Position N 35°31' E 139°44'.

Length 37 m; draft 4.5 m.

Type: Tug. MMSI: 431100219.

Date/timePositionNaut miles runAvg speedWind from/ knotsBaromVisibWave heightAir tempDewpointWater temp
2018-Jun-22 05:08N 35°31' E 139°44'0 0.0
2018-Jun-22 02:23N 35°31' E 139°44'0 0.0
2018-Jun-22 01:55N 35°31' E 139°44'1 0.8
2018-Jun-22 00:35N 35°30' E 139°46'210.2
2018-Jun-22 00:23N 35°29' E 139°48'612.4
2018-Jun-21 23:53N 35°23' E 139°46'6 0.3
2018-Jun-20 23:39N 35°18' E 139°43'1 0.4
2018-Jun-20 22:18N 35°18' E 139°42'1 0.1
2018-Jun-20 05:32N 35°17' E 139°43'1 1.9
2018-Jun-20 05:03N 35°17' E 139°41'1 0.0
2018-Jun-19 02:02N 35°18' E 139°42'0 1.3
2018-Jun-19 01:59N 35°18' E 139°42'1 0.8
2018-Jun-19 00:41N 35°18' E 139°43'0 0.8
2018-Jun-19 00:26N 35°18' E 139°43'0 0.3
2018-Jun-18 22:52N 35°18' E 139°42'0 0.0
2018-Jun-18 01:40N 35°18' E 139°42'0 0.8
2018-Jun-18 01:22N 35°18' E 139°42'0 0.1
2018-Jun-17 21:34N 35°18' E 139°42'1 0.0
2018-Jun-17 03:03N 35°18' E 139°43'0 0.8
2018-Jun-17 02:54N 35°18' E 139°43'0 0.4
2018-Jun-17 02:13N 35°18' E 139°43'0 0.8
2018-Jun-17 01:40N 35°18' E 139°43'0 0.0
2018-Jun-17 01:14N 35°18' E 139°43'0 0.5
2018-Jun-17 00:48N 35°18' E 139°42'1 2.3
2018-Jun-17 00:27N 35°18' E 139°42'1 0.4
2018-Jun-16 22:02N 35°18' E 139°43'0 1.6
2018-Jun-16 22:00N 35°18' E 139°43'1 0.1
2018-Jun-16 02:35N 35°18' E 139°42'0 0.8
2018-Jun-16 02:26N 35°19' E 139°42'0 0.6
2018-Jun-16 01:46N 35°18' E 139°42'1 3.3
2018-Jun-16 01:29N 35°18' E 139°43'0 0.5
2018-Jun-16 00:54N 35°18' E 139°43'0 0.6
2018-Jun-16 00:25N 35°18' E 139°43'0 0.2
2018-Jun-15 23:55N 35°18' E 139°43'1 1.8
2018-Jun-15 23:18N 35°19' E 139°42'3 9.5
2018-Jun-15 22:59N 35°22' E 139°41'712.8
2018-Jun-15 22:28N 35°28' E 139°42'4 0.2
2018-Jun-15 05:27N 35°31' E 139°45'7 7.4
2018-Jun-15 04:27N 35°24' E 139°46'5 1.7
2018-Jun-15 01:11N 35°20' E 139°41'311.9
2018-Jun-15 00:57N 35°23' E 139°41'511.5
2018-Jun-15 00:30N 35°28' E 139°42'3 0.2
2018-Jun-14 07:52N 35°30' E 139°45'3 9.5
2018-Jun-14 07:30N 35°28' E 139°43'713.7
2018-Jun-14 07:00N 35°21' E 139°41'3 1.3
2018-Jun-14 04:28N 35°18' E 139°43'0 0.3
2018-Jun-14 03:58N 35°18' E 139°43'2 0.3
2018-Jun-13 22:01N 35°19' E 139°41'114.3
2018-Jun-13 21:57N 35°20' E 139°41'714.0
2018-Jun-13 21:27N 35°27' E 139°42'4 0.3
2018-Jun-13 04:05N 35°31' E 139°44'3 7.2
2018-Jun-13 03:38N 35°28' E 139°42'211.4
2018-Jun-13 03:27N 35°26' E 139°42'  

Dump ship's entire track history